sensor_id;sensor_type;location;lat;lon;timestamp;pressure;altitude;pressure_sealevel;temperature;humidity
54816;BME280;40715;55.752;37.884;2022-10-16T00:01:19;100219.75;;;9.49;45.39
54816;BME280;40715;55.752;37.884;2022-10-16T00:03:47;100226.75;;;9.52;46.10
54816;BME280;40715;55.752;37.884;2022-10-16T00:06:16;100233.78;;;9.49;45.65
54816;BME280;40715;55.752;37.884;2022-10-16T00:08:44;100222.44;;;9.43;45.91
54816;BME280;40715;55.752;37.884;2022-10-16T00:11:17;100187.53;;;9.24;45.90
54816;BME280;40715;55.752;37.884;2022-10-16T00:13:46;100239.06;;;9.43;45.83
54816;BME280;40715;55.752;37.884;2022-10-16T00:16:14;100232.09;;;9.41;45.92
54816;BME280;40715;55.752;37.884;2022-10-16T00:18:41;100235.63;;;9.38;46.04
54816;BME280;40715;55.752;37.884;2022-10-16T00:21:17;100237.38;;;9.38;46.20
54816;BME280;40715;55.752;37.884;2022-10-16T00:24:06;100220.84;;;9.20;46.05
54816;BME280;40715;55.752;37.884;2022-10-16T00:26:37;100228.72;;;9.23;46.19
54816;BME280;40715;55.752;37.884;2022-10-16T00:29:05;100215.66;;;9.11;46.32
54816;BME280;40715;55.752;37.884;2022-10-16T00:31:33;100247.09;;;9.25;46.59
54816;BME280;40715;55.752;37.884;2022-10-16T00:34:00;100248.88;;;9.23;46.63
54816;BME280;40715;55.752;37.884;2022-10-16T00:36:27;100241.03;;;9.20;46.70
54816;BME280;40715;55.752;37.884;2022-10-16T00:38:55;100246.28;;;9.18;46.58
54816;BME280;40715;55.752;37.884;2022-10-16T00:41:26;100241.91;;;9.17;46.75
54816;BME280;40715;55.752;37.884;2022-10-16T00:44:01;100250.66;;;9.18;46.70
54816;BME280;40715;55.752;37.884;2022-10-16T00:46:38;100248.06;;;9.14;46.87
54816;BME280;40715;55.752;37.884;2022-10-16T00:49:16;100240.19;;;9.13;46.98
54816;BME280;40715;55.752;37.884;2022-10-16T00:51:47;100234.97;;;9.05;46.67
54816;BME280;40715;55.752;37.884;2022-10-16T00:54:27;100252.47;;;9.11;47.04
54816;BME280;40715;55.752;37.884;2022-10-16T00:56:57;100253.34;;;9.08;46.85
54816;BME280;40715;55.752;37.884;2022-10-16T00:59:37;100248.97;;;9.09;46.88
54816;BME280;40715;55.752;37.884;2022-10-16T01:02:07;100246.34;;;9.07;47.05
54816;BME280;40715;55.752;37.884;2022-10-16T01:04:38;100244.63;;;9.00;46.87
54816;BME280;40715;55.752;37.884;2022-10-16T01:07:34;100256.88;;;9.07;46.99
54816;BME280;40715;55.752;37.884;2022-10-16T01:10:10;100251.56;;;9.15;46.52
54816;BME280;40715;55.752;37.884;2022-10-16T01:12:42;100255.16;;;9.00;46.63
54816;BME280;40715;55.752;37.884;2022-10-16T01:17:53;100260.44;;;8.95;47.17
54816;BME280;40715;55.752;37.884;2022-10-16T01:20:31;100261.31;;;8.93;47.04
54816;BME280;40715;55.752;37.884;2022-10-16T01:23:04;100256.09;;;8.91;47.21
54816;BME280;40715;55.752;37.884;2022-10-16T01:28:22;100257.88;;;8.89;47.33
54816;BME280;40715;55.752;37.884;2022-10-16T01:30:56;100261.38;;;8.85;47.53
54816;BME280;40715;55.752;37.884;2022-10-16T01:33:30;100261.38;;;8.82;47.59
54816;BME280;40715;55.752;37.884;2022-10-16T01:36:03;100276.25;;;8.85;47.47
54816;BME280;40715;55.752;37.884;2022-10-16T01:38:36;100253.50;;;8.79;47.35
54816;BME280;40715;55.752;37.884;2022-10-16T01:41:27;100278.00;;;8.87;47.62
54816;BME280;40715;55.752;37.884;2022-10-16T01:44:20;100271.00;;;8.83;47.40
54816;BME280;40715;55.752;37.884;2022-10-16T01:46:50;100271.03;;;8.80;47.63
54816;BME280;40715;55.752;37.884;2022-10-16T01:49:20;100247.44;;;8.64;47.58
54816;BME280;40715;55.752;37.884;2022-10-16T01:51:52;100280.69;;;8.73;47.59
54816;BME280;40715;55.752;37.884;2022-10-16T01:54:22;100278.94;;;8.69;47.75
54816;BME280;40715;55.752;37.884;2022-10-16T01:56:53;100247.50;;;8.48;47.84
54816;BME280;40715;55.752;37.884;2022-10-16T01:59:24;100267.63;;;8.61;48.10
54816;BME280;40715;55.752;37.884;2022-10-16T02:01:59;100273.72;;;8.64;47.92
54816;BME280;40715;55.752;37.884;2022-10-16T02:04:30;100274.59;;;8.63;47.93
54816;BME280;40715;55.752;37.884;2022-10-16T02:06:58;100268.47;;;8.61;47.91
54816;BME280;40715;55.752;37.884;2022-10-16T02:09:26;100268.50;;;8.57;47.90
54816;BME280;40715;55.752;37.884;2022-10-16T02:11:54;100279.84;;;8.63;48.17
54816;BME280;40715;55.752;37.884;2022-10-16T02:14:23;100276.34;;;8.63;47.75
54816;BME280;40715;55.752;37.884;2022-10-16T02:16:51;100281.63;;;8.61;47.95
54816;BME280;40715;55.752;37.884;2022-10-16T02:19:19;100278.13;;;8.59;48.25
54816;BME280;40715;55.752;37.884;2022-10-16T02:21:55;100281.63;;;8.60;48.17
54816;BME280;40715;55.752;37.884;2022-10-16T02:24:33;100285.13;;;8.56;48.31
54816;BME280;40715;55.752;37.884;2022-10-16T02:30:13;100284.28;;;8.48;48.19
54816;BME280;40715;55.752;37.884;2022-10-16T02:32:42;100285.16;;;8.39;48.48
54816;BME280;40715;55.752;37.884;2022-10-16T02:35:12;100263.34;;;8.20;48.39
54816;BME280;40715;55.752;37.884;2022-10-16T02:37:40;100288.69;;;8.27;48.73
54816;BME280;40715;55.752;37.884;2022-10-16T02:40:08;100285.19;;;8.25;48.90
54816;BME280;40715;55.752;37.884;2022-10-16T02:42:36;100288.69;;;8.21;48.96
54816;BME280;40715;55.752;37.884;2022-10-16T02:45:08;100270.38;;;7.93;48.87
54816;BME280;40715;55.752;37.884;2022-10-16T02:47:35;100278.22;;;8.08;49.20
54816;BME280;40715;55.752;37.884;2022-10-16T02:50:03;100293.97;;;8.11;49.02
54816;BME280;40715;55.752;37.884;2022-10-16T02:52:30;100271.25;;;7.98;48.95
54816;BME280;40715;55.752;37.884;2022-10-16T02:54:57;100293.97;;;8.07;49.39
54816;BME280;40715;55.752;37.884;2022-10-16T02:57:24;100279.09;;;7.97;49.27
54816;BME280;40715;55.752;37.884;2022-10-16T02:59:51;100290.47;;;8.03;49.34
54816;BME280;40715;55.752;37.884;2022-10-16T03:02:18;100297.50;;;8.00;49.56
54816;BME280;40715;55.752;37.884;2022-10-16T03:04:45;100296.59;;;7.98;49.47
54816;BME280;40715;55.752;37.884;2022-10-16T03:07:12;100275.63;;;7.81;49.43
54816;BME280;40715;55.752;37.884;2022-10-16T03:09:39;100297.47;;;7.92;49.84
54816;BME280;40715;55.752;37.884;2022-10-16T03:12:06;100282.63;;;7.77;49.47
54816;BME280;40715;55.752;37.884;2022-10-16T03:14:34;100311.47;;;7.89;49.50
54816;BME280;40715;55.752;37.884;2022-10-16T03:17:01;100304.50;;;7.87;49.46
54816;BME280;40715;55.752;37.884;2022-10-16T03:19:28;100294.00;;;7.74;49.74
54816;BME280;40715;55.752;37.884;2022-10-16T03:21:55;100304.47;;;7.82;49.93
54816;BME280;40715;55.752;37.884;2022-10-16T03:24:22;100300.09;;;7.75;49.54
54816;BME280;40715;55.752;37.884;2022-10-16T03:26:48;100314.09;;;7.78;49.54
54816;BME280;40715;55.752;37.884;2022-10-16T03:29:15;100282.63;;;7.57;49.94
54816;BME280;40715;55.752;37.884;2022-10-16T03:31:42;100296.59;;;7.64;50.11
54816;BME280;40715;55.752;37.884;2022-10-16T03:34:09;100269.50;;;7.51;49.85
54816;BME280;40715;55.752;37.884;2022-10-16T03:36:36;100319.34;;;7.72;50.16
54816;BME280;40715;55.752;37.884;2022-10-16T03:39:03;100314.97;;;7.71;50.26
54816;BME280;40715;55.752;37.884;2022-10-16T03:41:30;100324.56;;;7.71;50.00
54816;BME280;40715;55.752;37.884;2022-10-16T03:43:57;100320.22;;;7.68;49.80
54816;BME280;40715;55.752;37.884;2022-10-16T03:46:24;100316.72;;;7.71;50.04
54816;BME280;40715;55.752;37.884;2022-10-16T03:48:51;100311.47;;;7.69;50.36
54816;BME280;40715;55.752;37.884;2022-10-16T03:51:18;100316.72;;;7.71;50.29
54816;BME280;40715;55.752;37.884;2022-10-16T03:53:44;100325.47;;;7.73;50.16
54816;BME280;40715;55.752;37.884;2022-10-16T03:56:11;100320.22;;;7.76;50.30
54816;BME280;40715;55.752;37.884;2022-10-16T03:58:38;100302.75;;;7.66;50.02
54816;BME280;40715;55.752;37.884;2022-10-16T04:01:05;100316.72;;;7.77;50.28
54816;BME280;40715;55.752;37.884;2022-10-16T04:03:33;100318.50;;;7.83;50.28
54816;BME280;40715;55.752;37.884;2022-10-16T04:06:00;100328.09;;;7.84;50.50
54816;BME280;40715;55.752;37.884;2022-10-16T04:08:27;100326.34;;;7.95;50.11
54816;BME280;40715;55.752;37.884;2022-10-16T04:10:53;100314.06;;;8.08;50.63
54816;BME280;40715;55.752;37.884;2022-10-16T04:13:20;100323.66;;;8.48;50.76
54816;BME280;40715;55.752;37.884;2022-10-16T04:15:47;100327.03;;;8.93;50.28
54816;BME280;40715;55.752;37.884;2022-10-16T04:18:14;100294.41;;;9.31;49.96
54816;BME280;40715;55.752;37.884;2022-10-16T04:20:41;100303.63;;;9.86;49.77
54816;BME280;40715;55.752;37.884;2022-10-16T04:23:08;100334.53;;;10.63;48.90
54816;BME280;40715;55.752;37.884;2022-10-16T04:25:35;100329.28;;;11.32;48.46
54816;BME280;40715;55.752;37.884;2022-10-16T04:28:02;100329.16;;;12.00;47.55
54816;BME280;40715;55.752;37.884;2022-10-16T04:30:29;100296.50;;;12.53;46.65
54816;BME280;40715;55.752;37.884;2022-10-16T04:32:56;100329.00;;;13.42;45.60
54816;BME280;40715;55.752;37.884;2022-10-16T04:35:23;100329.00;;;14.16;44.77
54816;BME280;40715;55.752;37.884;2022-10-16T04:37:50;100328.16;;;14.81;43.80
54816;BME280;40715;55.752;37.884;2022-10-16T04:40:17;100329.22;;;15.64;42.67
54816;BME280;40715;55.752;37.884;2022-10-16T04:42:44;100335.00;;;16.32;41.39
54816;BME280;40715;55.752;37.884;2022-10-16T04:45:10;100336.06;;;17.02;40.27
54816;BME280;40715;55.752;37.884;2022-10-16T04:47:39;100350.09;;;17.75;39.28
54816;BME280;40715;55.752;37.884;2022-10-16T04:50:06;100348.91;;;18.47;38.26
54816;BME280;40715;55.752;37.884;2022-10-16T04:52:33;100350.13;;;19.19;37.16
54816;BME280;40715;55.752;37.884;2022-10-16T04:55:05;100342.84;;;19.97;35.89
54816;BME280;40715;55.752;37.884;2022-10-16T04:57:33;100356.56;;;20.79;34.50
54816;BME280;40715;55.752;37.884;2022-10-16T05:00:00;100357.44;;;21.45;33.52
54816;BME280;40715;55.752;37.884;2022-10-16T05:02:29;100359.84;;;22.13;32.36
54816;BME280;40715;55.752;37.884;2022-10-16T05:04:56;100359.72;;;22.75;31.42
54816;BME280;40715;55.752;37.884;2022-10-16T05:07:23;100342.31;;;23.26;30.10
54816;BME280;40715;55.752;37.884;2022-10-16T05:09:50;100356.84;;;23.92;29.42
54816;BME280;40715;55.752;37.884;2022-10-16T05:12:17;100347.75;;;24.61;28.14
54816;BME280;40715;55.752;37.884;2022-10-16T05:14:47;100353.22;;;25.11;27.08
54816;BME280;40715;55.752;37.884;2022-10-16T05:17:14;100367.03;;;25.69;26.72
54816;BME280;40715;55.752;37.884;2022-10-16T05:19:41;100369.88;;;26.16;25.63
54816;BME280;40715;55.752;37.884;2022-10-16T05:22:12;100366.16;;;26.77;24.89
54816;BME280;40715;55.752;37.884;2022-10-16T05:24:40;100352.88;;;27.30;24.03
54816;BME280;40715;55.752;37.884;2022-10-16T05:27:07;100373.59;;;27.98;22.90
54816;BME280;40715;55.752;37.884;2022-10-16T05:29:33;100363.88;;;28.28;22.34
54816;BME280;40715;55.752;37.884;2022-10-16T05:32:01;100371.94;;;28.60;21.98
54816;BME280;40715;55.752;37.884;2022-10-16T05:34:29;100349.19;;;28.93;21.35
54816;BME280;40715;55.752;37.884;2022-10-16T05:36:56;100380.44;;;29.50;20.81
54816;BME280;40715;55.752;37.884;2022-10-16T05:39:23;100384.41;;;29.96;20.38
54816;BME280;40715;55.752;37.884;2022-10-16T05:41:50;100390.72;;;30.36;19.83
54816;BME280;40715;55.752;37.884;2022-10-16T05:44:17;100383.53;;;30.74;19.12
54816;BME280;40715;55.752;37.884;2022-10-16T05:46:46;100361.72;;;30.93;18.81
54816;BME280;40715;55.752;37.884;2022-10-16T05:49:13;100370.09;;;31.47;18.30
54816;BME280;40715;55.752;37.884;2022-10-16T05:51:40;100374.72;;;31.93;17.64
54816;BME280;40715;55.752;37.884;2022-10-16T05:54:11;100369.59;;;32.26;17.43
54816;BME280;40715;55.752;37.884;2022-10-16T05:56:38;100393.44;;;32.86;16.66
54816;BME280;40715;55.752;37.884;2022-10-16T05:59:08;100383.72;;;33.18;16.29
54816;BME280;40715;55.752;37.884;2022-10-16T06:01:37;100392.97;;;33.60;16.10
54816;BME280;40715;55.752;37.884;2022-10-16T06:04:05;100393.59;;;33.88;15.48
54816;BME280;40715;55.752;37.884;2022-10-16T06:06:32;100390.03;;;34.12;15.07
54816;BME280;40715;55.752;37.884;2022-10-16T06:08:59;100389.38;;;34.43;15.16
54816;BME280;40715;55.752;37.884;2022-10-16T06:11:29;100389.88;;;34.71;14.33
54816;BME280;40715;55.752;37.884;2022-10-16T06:13:58;100396.84;;;34.99;14.39
54816;BME280;40715;55.752;37.884;2022-10-16T06:16:27;100398.69;;;35.31;14.02
54816;BME280;40715;55.752;37.884;2022-10-16T06:18:55;100397.88;;;35.62;13.78
54816;BME280;40715;55.752;37.884;2022-10-16T06:21:28;100387.03;;;35.69;13.48
54816;BME280;40715;55.752;37.884;2022-10-16T06:23:56;100403.31;;;36.02;13.26
54816;BME280;40715;55.752;37.884;2022-10-16T06:26:26;100407.19;;;36.39;12.93
54816;BME280;40715;55.752;37.884;2022-10-16T06:28:54;100407.44;;;36.67;12.36
54816;BME280;40715;55.752;37.884;2022-10-16T06:31:22;100405.06;;;36.87;12.53
54816;BME280;40715;55.752;37.884;2022-10-16T06:33:52;100412.16;;;36.96;11.89
54816;BME280;40715;55.752;37.884;2022-10-16T06:36:19;100407.72;;;37.10;12.47
54816;BME280;40715;55.752;37.884;2022-10-16T06:38:47;100412.94;;;37.50;11.79
54816;BME280;40715;55.752;37.884;2022-10-16T06:41:16;100405.13;;;38.05;11.97
54816;BME280;40715;55.752;37.884;2022-10-16T06:43:44;100415.63;;;38.38;11.10
54816;BME280;40715;55.752;37.884;2022-10-16T06:46:16;100414.09;;;38.57;11.16
54816;BME280;40715;55.752;37.884;2022-10-16T06:48:43;100421.53;;;38.85;11.05
54816;BME280;40715;55.752;37.884;2022-10-16T06:51:13;100420.97;;;39.25;10.65
54816;BME280;40715;55.752;37.884;2022-10-16T06:53:42;100414.38;;;39.61;10.48
54816;BME280;40715;55.752;37.884;2022-10-16T06:56:27;100428.59;;;40.26;10.58
54816;BME280;40715;55.752;37.884;2022-10-16T06:58:56;100413.13;;;40.65;9.81
54816;BME280;40715;55.752;37.884;2022-10-16T07:01:24;100418.69;;;40.92;9.66
54816;BME280;40715;55.752;37.884;2022-10-16T07:03:52;100422.19;;;41.26;9.38
54816;BME280;40715;55.752;37.884;2022-10-16T07:06:20;100431.44;;;42.11;8.84
54816;BME280;40715;55.752;37.884;2022-10-16T07:08:48;100423.53;;;42.71;8.63
54816;BME280;40715;55.752;37.884;2022-10-16T07:11:19;100427.13;;;42.97;8.34
54816;BME280;40715;55.752;37.884;2022-10-16T07:13:47;100427.97;;;42.79;7.91
54816;BME280;40715;55.752;37.884;2022-10-16T07:16:22;100422.66;;;42.46;8.20
54816;BME280;40715;55.752;37.884;2022-10-16T07:18:49;100437.44;;;42.39;8.53
54816;BME280;40715;55.752;37.884;2022-10-16T07:21:20;100434.22;;;42.93;8.22
54816;BME280;40715;55.752;37.884;2022-10-16T07:23:54;100440.00;;;43.84;7.64
54816;BME280;40715;55.752;37.884;2022-10-16T07:26:23;100438.56;;;45.25;7.11
54816;BME280;40715;55.752;37.884;2022-10-16T07:28:50;100430.38;;;46.46;6.35
54816;BME280;40715;55.752;37.884;2022-10-16T07:31:19;100445.66;;;45.69;6.25
54816;BME280;40715;55.752;37.884;2022-10-16T07:33:47;100439.06;;;44.87;6.99
54816;BME280;40715;55.752;37.884;2022-10-16T07:36:19;100441.06;;;44.32;6.81
54816;BME280;40715;55.752;37.884;2022-10-16T07:38:46;100440.72;;;44.40;7.00
54816;BME280;40715;55.752;37.884;2022-10-16T07:41:16;100434.50;;;44.69;7.15
54816;BME280;40715;55.752;37.884;2022-10-16T07:43:52;100437.75;;;44.77;7.05
54816;BME280;40715;55.752;37.884;2022-10-16T07:46:21;100433.41;;;44.70;6.73
54816;BME280;40715;55.752;37.884;2022-10-16T07:48:49;100437.28;;;44.69;6.75
54816;BME280;40715;55.752;37.884;2022-10-16T07:51:18;100424.56;;;44.96;6.46
54816;BME280;40715;55.752;37.884;2022-10-16T07:53:46;100437.88;;;45.18;6.38
54816;BME280;40715;55.752;37.884;2022-10-16T07:56:15;100437.28;;;45.04;6.08
54816;BME280;40715;55.752;37.884;2022-10-16T07:58:42;100426.75;;;44.94;6.34
54816;BME280;40715;55.752;37.884;2022-10-16T08:01:12;100433.66;;;45.15;6.45
54816;BME280;40715;55.752;37.884;2022-10-16T08:03:44;100428.28;;;45.38;6.04
54816;BME280;40715;55.752;37.884;2022-10-16T08:06:12;100430.34;;;45.54;5.95
54816;BME280;40715;55.752;37.884;2022-10-16T08:08:39;100429.97;;;45.91;5.94
54816;BME280;40715;55.752;37.884;2022-10-16T08:11:06;100431.00;;;46.31;6.02
54816;BME280;40715;55.752;37.884;2022-10-16T08:13:33;100445.69;;;46.60;5.48
54816;BME280;40715;55.752;37.884;2022-10-16T08:16:01;100437.56;;;46.42;5.75
54816;BME280;40715;55.752;37.884;2022-10-16T08:18:28;100435.81;;;46.70;5.63
54816;BME280;40715;55.752;37.884;2022-10-16T08:20:59;100425.81;;;47.30;5.39
54816;BME280;40715;55.752;37.884;2022-10-16T08:23:27;100433.84;;;47.70;5.16
54816;BME280;40715;55.752;37.884;2022-10-16T08:25:56;100435.31;;;46.73;5.02
54816;BME280;40715;55.752;37.884;2022-10-16T08:28:23;100436.28;;;47.00;5.22
54816;BME280;40715;55.752;37.884;2022-10-16T08:30:50;100434.28;;;47.79;5.07
54816;BME280;40715;55.752;37.884;2022-10-16T08:33:18;100443.13;;;48.26;5.11
54816;BME280;40715;55.752;37.884;2022-10-16T08:35:52;100430.31;;;48.62;4.95
54816;BME280;40715;55.752;37.884;2022-10-16T08:38:20;100441.88;;;48.76;4.52
54816;BME280;40715;55.752;37.884;2022-10-16T08:40:47;100430.50;;;46.68;5.26
54816;BME280;40715;55.752;37.884;2022-10-16T08:43:43;100424.72;;;41.93;7.08
54816;BME280;40715;55.752;37.884;2022-10-16T08:48:57;100406.28;;;34.14;10.18
54816;BME280;40715;55.752;37.884;2022-10-16T08:51:35;100402.13;;;31.36;11.79
54816;BME280;40715;55.752;37.884;2022-10-16T08:54:06;100399.44;;;28.67;13.37
54816;BME280;40715;55.752;37.884;2022-10-16T08:56:36;100392.06;;;26.68;14.71
54816;BME280;40715;55.752;37.884;2022-10-16T08:59:06;100390.69;;;25.15;15.97
54816;BME280;40715;55.752;37.884;2022-10-16T09:01:42;100389.81;;;23.96;16.87
54816;BME280;40715;55.752;37.884;2022-10-16T09:15:35;100395.16;;;19.86;20.82
54816;BME280;40715;55.752;37.884;2022-10-16T09:18:30;100393.03;;;19.35;20.92
54816;BME280;40715;55.752;37.884;2022-10-16T09:21:31;100393.31;;;18.89;21.71
54816;BME280;40715;55.752;37.884;2022-10-16T09:26:38;100392.13;;;18.13;22.88
54816;BME280;40715;55.752;37.884;2022-10-16T09:29:06;100386.22;;;17.82;23.07
54816;BME280;40715;55.752;37.884;2022-10-16T09:31:36;100354.53;;;17.52;23.50
54816;BME280;40715;55.752;37.884;2022-10-16T09:34:04;100360.50;;;17.35;23.88
54816;BME280;40715;55.752;37.884;2022-10-16T09:36:41;100382.94;;;17.30;24.22
54816;BME280;40715;55.752;37.884;2022-10-16T09:39:12;100384.38;;;17.15;24.38
54816;BME280;40715;55.752;37.884;2022-10-16T09:41:41;100377.44;;;17.11;24.28
54816;BME280;40715;55.752;37.884;2022-10-16T09:44:28;100384.09;;;16.99;24.67
54816;BME280;40715;55.752;37.884;2022-10-16T09:47:03;100385.66;;;16.79;25.28
54816;BME280;40715;55.752;37.884;2022-10-16T09:49:30;100380.50;;;16.74;25.23
54816;BME280;40715;55.752;37.884;2022-10-16T09:52:24;100392.84;;;16.76;25.38
54816;BME280;40715;55.752;37.884;2022-10-16T09:54:55;100374.22;;;16.76;25.44
54816;BME280;40715;55.752;37.884;2022-10-16T09:57:22;100350.69;;;16.65;25.26
54816;BME280;40715;55.752;37.884;2022-10-16T09:59:52;100387.16;;;16.86;25.40
54816;BME280;40715;55.752;37.884;2022-10-16T10:02:30;100379.28;;;16.83;25.65
54816;BME280;40715;55.752;37.884;2022-10-16T10:05:00;100368.84;;;16.77;25.97
54816;BME280;40715;55.752;37.884;2022-10-16T10:07:37;100369.06;;;16.71;25.92
54816;BME280;40715;55.752;37.884;2022-10-16T10:10:20;100364.00;;;16.65;26.23
54816;BME280;40715;55.752;37.884;2022-10-16T10:12:51;100372.34;;;16.54;26.21
54816;BME280;40715;55.752;37.884;2022-10-16T10:15:18;100362.03;;;16.45;26.57
54816;BME280;40715;55.752;37.884;2022-10-16T10:17:54;100358.75;;;16.36;27.15
54816;BME280;40715;55.752;37.884;2022-10-16T10:20:31;100365.91;;;16.34;27.00
54816;BME280;40715;55.752;37.884;2022-10-16T10:23:22;100355.06;;;16.41;26.92
54816;BME280;40715;55.752;37.884;2022-10-16T10:34:16;100362.66;;;16.26;27.60
54816;BME280;40715;55.752;37.884;2022-10-16T10:36:56;100364.88;;;16.13;27.85
54816;BME280;40715;55.752;37.884;2022-10-16T10:39:43;100350.91;;;16.07;27.49
54816;BME280;40715;55.752;37.884;2022-10-16T10:45:24;100361.44;;;16.10;27.61
54816;BME280;40715;55.752;37.884;2022-10-16T10:47:59;100358.66;;;16.13;27.56
54816;BME280;40715;55.752;37.884;2022-10-16T10:50:41;100352.28;;;16.18;27.47
54816;BME280;40715;55.752;37.884;2022-10-16T10:53:39;100352.09;;;16.23;27.55
54816;BME280;40715;55.752;37.884;2022-10-16T10:59:32;100345.81;;;16.26;27.81
54816;BME280;40715;55.752;37.884;2022-10-16T11:07:36;100348.66;;;16.21;28.02
54816;BME280;40715;55.752;37.884;2022-10-16T11:10:21;100330.25;;;16.15;28.06
54816;BME280;40715;55.752;37.884;2022-10-16T11:12:58;100338.88;;;16.21;28.00
54816;BME280;40715;55.752;37.884;2022-10-16T11:18:06;100332.53;;;16.26;28.07
54816;BME280;40715;55.752;37.884;2022-10-16T11:20:49;100341.41;;;16.25;28.15
54816;BME280;40715;55.752;37.884;2022-10-16T11:23:26;100337.72;;;16.29;28.01
54816;BME280;40715;55.752;37.884;2022-10-16T11:25:59;100325.75;;;16.17;27.77
54816;BME280;40715;55.752;37.884;2022-10-16T11:28:35;100319.81;;;16.09;28.22
54816;BME280;40715;55.752;37.884;2022-10-16T11:31:07;100329.69;;;16.32;27.93
54816;BME280;40715;55.752;37.884;2022-10-16T11:33:39;100338.88;;;16.21;28.05
54816;BME280;40715;55.752;37.884;2022-10-16T11:39:04;100311.94;;;16.05;28.32
54816;BME280;40715;55.752;37.884;2022-10-16T11:47:23;100330.56;;;16.05;28.40
54816;BME280;40715;55.752;37.884;2022-10-16T11:56:19;100316.09;;;15.87;28.81
54816;BME280;40715;55.752;37.884;2022-10-16T12:01:40;100324.84;;;15.91;29.02
54816;BME280;40715;55.752;37.884;2022-10-16T12:06:48;100316.28;;;15.81;29.24
54816;BME280;40715;55.752;37.884;2022-10-16T12:11:52;100324.50;;;15.74;29.64
54816;BME280;40715;55.752;37.884;2022-10-16T12:17:00;100316.63;;;15.70;29.61
54816;BME280;40715;55.752;37.884;2022-10-16T12:19:29;100280.22;;;15.46;29.57
54816;BME280;40715;55.752;37.884;2022-10-16T12:21:59;100324.63;;;15.69;29.58
54816;BME280;40715;55.752;37.884;2022-10-16T12:24:38;100324.72;;;15.66;29.77
54816;BME280;40715;55.752;37.884;2022-10-16T12:27:27;100320.41;;;15.62;29.94
54816;BME280;40715;55.752;37.884;2022-10-16T12:30:01;100306.44;;;15.57;29.86
54816;BME280;40715;55.752;37.884;2022-10-16T12:32:37;100319.56;;;15.61;29.93
54816;BME280;40715;55.752;37.884;2022-10-16T12:35:29;100309.81;;;15.62;29.93
54816;BME280;40715;55.752;37.884;2022-10-16T12:38:30;100280.16;;;15.47;29.91
54816;BME280;40715;55.752;37.884;2022-10-16T12:41:06;100308.94;;;15.61;29.88
54816;BME280;40715;55.752;37.884;2022-10-16T12:43:46;100304.44;;;15.63;30.00
54816;BME280;40715;55.752;37.884;2022-10-16T12:48:42;100300.34;;;15.53;30.15
54816;BME280;40715;55.752;37.884;2022-10-16T12:54:46;100302.88;;;15.58;30.20
54816;BME280;40715;55.752;37.884;2022-10-16T13:10:28;100303.69;;;15.31;30.64
54816;BME280;40715;55.752;37.884;2022-10-16T13:13:13;100290.75;;;15.21;30.71
54816;BME280;40715;55.752;37.884;2022-10-16T13:18:28;100299.91;;;15.10;31.12
54816;BME280;40715;55.752;37.884;2022-10-16T13:24:11;100299.94;;;15.09;30.99
54816;BME280;40715;55.752;37.884;2022-10-16T13:27:01;100302.69;;;15.06;31.17
54816;BME280;40715;55.752;37.884;2022-10-16T13:29:32;100293.03;;;15.03;31.03
54816;BME280;40715;55.752;37.884;2022-10-16T13:32:01;100298.38;;;15.01;31.14
54816;BME280;40715;55.752;37.884;2022-10-16T13:34:41;100297.78;;;14.92;31.55
54816;BME280;40715;55.752;37.884;2022-10-16T13:37:20;100301.53;;;14.84;31.53
54816;BME280;40715;55.752;37.884;2022-10-16T13:39:47;100305.16;;;14.82;31.54
54816;BME280;40715;55.752;37.884;2022-10-16T13:42:22;100303.47;;;14.79;31.64
54816;BME280;40715;55.752;37.884;2022-10-16T13:44:54;100298.22;;;14.78;31.58
54816;BME280;40715;55.752;37.884;2022-10-16T13:47:27;100294.00;;;14.69;31.76
54816;BME280;40715;55.752;37.884;2022-10-16T13:50:09;100297.66;;;14.65;32.15
54816;BME280;40715;55.752;37.884;2022-10-16T13:52:37;100291.66;;;14.58;31.98
54816;BME280;40715;55.752;37.884;2022-10-16T13:55:11;100257.19;;;14.27;32.29
54816;BME280;40715;55.752;37.884;2022-10-16T13:57:39;100303.50;;;14.45;32.19
54816;BME280;40715;55.752;37.884;2022-10-16T14:00:26;100300.97;;;14.40;32.28
54816;BME280;40715;55.752;37.884;2022-10-16T14:03:16;100273.25;;;14.19;32.27
54816;BME280;40715;55.752;37.884;2022-10-16T14:06:33;100297.91;;;14.23;32.57
54816;BME280;40715;55.752;37.884;2022-10-16T14:08:45;100293.81;;;14.11;32.78
54816;BME280;40715;55.752;37.884;2022-10-16T14:11:23;100282.34;;;14.10;32.78
54816;BME280;40715;55.752;37.884;2022-10-16T14:13:51;100289.50;;;14.07;32.98
54816;BME280;40715;55.752;37.884;2022-10-16T14:16:22;100284.28;;;14.04;32.93
54816;BME280;40715;55.752;37.884;2022-10-16T14:19:02;100295.03;;;13.97;33.53
54816;BME280;40715;55.752;37.884;2022-10-16T14:21:32;100283.75;;;13.89;33.28
54816;BME280;40715;55.752;37.884;2022-10-16T14:24:10;100289.94;;;13.90;33.42
54816;BME280;40715;55.752;37.884;2022-10-16T14:26:43;100290.94;;;13.86;33.61
54816;BME280;40715;55.752;37.884;2022-10-16T14:29:18;100281.41;;;13.78;33.47
54816;BME280;40715;55.752;37.884;2022-10-16T14:32:05;100294.59;;;13.80;33.37
54816;BME280;40715;55.752;37.884;2022-10-16T14:34:34;100302.59;;;13.78;33.54
54816;BME280;40715;55.752;37.884;2022-10-16T14:37:23;100301.03;;;13.70;33.81
54816;BME280;40715;55.752;37.884;2022-10-16T14:39:53;100301.94;;;13.69;33.96
54816;BME280;40715;55.752;37.884;2022-10-16T14:42:23;100303.78;;;13.65;34.15
54816;BME280;40715;55.752;37.884;2022-10-16T14:44:53;100293.38;;;13.57;34.18
54816;BME280;40715;55.752;37.884;2022-10-16T14:47:22;100286.66;;;13.42;34.21